Enter the Airport ICAO Code

Search by Airport or City

Current Weather

GCLP | Gran Canaria Airport

Gran Canaria, Canary Islands, Spain

Last Update 27 Minutes Ago

Mostly Cloudy Sky

Temperature of 23 ºC

Strong Winds from NorthEast

Temperature

23 ºC

Dew Point Temperature

13 ºC

Relative Humidity

53.51 %

Wind Direction

NorthEast (030º, Without Significant Variations)

Wind Velocity

43 km/h (23 kt)

Gusts

None

Visibility

Greater than 10 Kilometers

Sea Level Pressure

1022 hPa (Hectopascals)

Layers of Clouds

60% to 90% of Sky Covered from 1067 mts (3500 ft) Above Ground Level.

METAR GCLP 191130Z 03023KT 9999 BKN035 23/13 Q1022 NOSIG

Weather Forecast

GCLP | Gran Canaria Airport

Gran Canaria, Canary Islands, Spain

Forecast valid for the next 21 Hours

From now on it is expected:

Mostly Cloudy Sky

Strong Winds from North

From now on it is expected 8 hours with intermittent periods of:

Moderate to Strong Winds from North with Gusts

Maximum Temperature

23 ºC in 2 Hours

Minimum Temperature

19 ºC in 18 Hours

TAF GCLP 190800Z 1909/2009 01022KT 9999 BKN035 TX23/1914Z TN19/2006Z PROB40 TEMPO 1910/1920 01020G30KT